Time;durP1;ratioP1;P1;durP2;ratioP2;P2;SDS_P1;SDS_P2;PMS_P1;PMS_P2;Temp;Humidity;BMP_temperature;BMP_pressure;BME280_temperature;BME280_humidity;BME280_pressure;Samples;Min_cycle;Max_cycle;Signal;HPM_P1;HPM_P2
2021/01/11 00:00:59;;;;;;;107.22;53.50;;;;;;;1.80;58.97;94794.70;1807784;79;21128;-53
2021/01/11 00:03:27;;;;;;;91.55;48.15;;;;;;;1.82;58.80;94791.02;1779000;79;21168;-55
2021/01/11 00:05:56;;;;;;;81.63;44.20;;;;;;;1.81;58.75;94789.47;1807800;79;21360;-52
2021/01/11 00:08:24;;;;;;;90.20;43.55;;;;;;;1.82;58.55;94793.72;1807651;78;21526;-52
2021/01/11 00:10:52;;;;;;;79.92;42.65;;;;;;;1.81;58.40;94787.52;1807792;78;21061;-50
2021/01/11 00:13:21;;;;;;;91.12;45.83;;;;;;;1.78;58.41;94795.08;1807780;79;21165;-52
2021/01/11 00:15:49;;;;;;;89.83;47.45;;;;;;;1.74;58.53;94788.13;1807755;78;21133;-52
2021/01/11 00:18:17;;;;;;;75.17;41.65;;;;;;;1.78;58.54;94791.61;1807722;78;22021;-51
2021/01/11 00:20:46;;;;;;;71.35;38.83;;;;;;;1.84;58.43;94784.05;1807726;78;21065;-52
2021/01/11 00:23:15;;;;;;;57.40;33.13;;;;;;;1.84;58.46;94785.97;1807844;79;21065;-52
2021/01/11 00:25:43;;;;;;;59.20;34.33;;;;;;;1.84;58.31;94791.39;1807752;79;21057;-53
2021/01/11 00:28:12;;;;;;;60.52;37.45;;;;;;;1.79;58.32;94789.09;1807775;79;21077;-52
2021/01/11 00:30:40;;;;;;;62.38;35.35;;;;;;;1.76;58.36;94789.87;1807756;78;21338;-51
2021/01/11 00:33:09;;;;;;;47.43;27.77;;;;;;;1.77;58.49;94787.34;1807833;78;21163;-52
2021/01/11 00:35:37;;;;;;;54.23;32.23;;;;;;;1.84;58.39;94781.33;1807724;78;23062;-53
2021/01/11 00:38:06;;;;;;;49.42;29.02;;;;;;;1.84;58.35;94775.13;1807637;79;21498;-52
2021/01/11 00:40:34;;;;;;;49.63;30.10;;;;;;;1.82;58.19;94762.54;1807786;79;21049;-52
2021/01/11 00:43:03;;;;;;;52.38;29.87;;;;;;;1.73;58.22;94777.06;1807769;78;21194;-53
2021/01/11 00:45:33;;;;;;;42.95;26.57;;;;;;;1.72;58.41;94777.47;1807694;79;21085;-52
2021/01/11 00:48:02;;;;;;;43.05;26.07;;;;;;;1.72;58.47;94769.34;1807723;78;21066;-52
2021/01/11 00:50:30;;;;;;;53.78;29.40;;;;;;;1.64;58.63;94761.01;1807757;79;21079;-52
2021/01/11 00:53:00;;;;;;;42.43;25.10;;;;;;;1.55;58.89;94755.23;1807767;79;21137;-52
2021/01/11 00:55:28;;;;;;;63.92;34.03;;;;;;;1.50;59.07;94746.14;1807677;79;22328;-51
2021/01/11 00:58:01;;;;;;;49.42;28.92;;;;;;;1.45;59.21;94758.70;1807010;79;21085;-51
2021/01/11 01:00:32;;;;;;;53.50;30.43;;;;;;;1.53;59.33;94770.52;1807490;79;21069;-51
2021/01/11 01:03:03;;;;;;;60.03;33.35;;;;;;;1.66;59.14;94763.53;1794830;79;21097;-51
2021/01/11 01:05:31;;;;;;;68.02;34.48;;;;;;;1.74;58.90;94766.44;1807753;79;21458;-51
2021/01/11 01:08:01;;;;;;;69.00;34.10;;;;;;;1.75;58.73;94773.41;1807722;79;21342;-51
2021/01/11 01:10:29;;;;;;;54.90;31.65;;;;;;;1.77;58.75;94775.91;1779223;79;21128;-50
2021/01/11 01:12:57;;;;;;;40.60;24.40;;;;;;;1.79;58.64;94783.66;1807681;79;21144;-50
2021/01/11 01:15:25;;;;;;;37.78;23.50;;;;;;;1.82;58.47;94785.59;1807736;79;21053;-52
2021/01/11 01:17:54;;;;;;;43.13;23.70;;;;;;;1.81;58.34;94785.40;1807793;78;21063;-53
2021/01/11 01:20:22;;;;;;;46.23;27.35;;;;;;;1.70;58.55;94776.50;1807732;78;21363;-50
2021/01/11 01:22:51;;;;;;;48.23;29.55;;;;;;;1.69;58.75;94776.91;1807684;78;21569;-51
2021/01/11 01:25:19;;;;;;;49.77;28.90;;;;;;;1.67;58.89;94771.86;1807748;79;21105;-52
2021/01/11 01:27:48;;;;;;;45.52;27.13;;;;;;;1.69;58.97;94760.03;1807805;78;21065;-51
2021/01/11 01:30:17;;;;;;;48.83;29.35;;;;;;;1.74;58.92;94757.70;1807734;78;21180;-52
2021/01/11 01:32:46;;;;;;;45.95;27.20;;;;;;;1.76;58.87;94754.63;1807760;78;21363;-51
2021/01/11 01:35:14;;;;;;;63.52;35.08;;;;;;;1.79;58.85;94756.55;1807764;78;21510;-52
2021/01/11 01:37:44;;;;;;;60.90;32.05;;;;;;;1.73;58.92;94752.66;1808534;78;21203;-51
2021/01/11 01:40:13;;;;;;;84.47;43.23;;;;;;;1.74;58.87;94750.17;1813408;79;21179;-51
2021/01/11 01:42:41;;;;;;;51.92;29.57;;;;;;;1.73;58.94;94755.38;1813698;79;21462;-51
2021/01/11 01:45:11;;;;;;;61.50;32.80;;;;;;;1.73;58.86;94750.55;1813581;79;21226;-52
2021/01/11 01:47:39;;;;;;;51.15;29.67;;;;;;;1.66;59.00;94749.98;1813523;79;21125;-51
2021/01/11 01:50:09;;;;;;;53.30;31.50;;;;;;;1.65;59.09;94745.72;1813571;79;21167;-50
2021/01/11 01:52:38;;;;;;;69.17;38.40;;;;;;;1.73;59.02;94746.48;1786891;79;21100;-51
2021/01/11 01:55:09;;;;;;;70.67;37.90;;;;;;;1.80;58.97;94752.66;1813600;78;21172;-52
2021/01/11 01:57:37;;;;;;;59.08;31.87;;;;;;;1.83;58.83;94755.38;1813570;79;21270;-51
2021/01/11 02:00:07;;;;;;;68.45;36.17;;;;;;;1.87;58.84;94747.22;1813619;79;21486;-51
2021/01/11 02:02:37;;;;;;;72.35;38.38;;;;;;;1.83;58.79;94743.74;1809856;79;21545;-50
2021/01/11 02:05:07;;;;;;;48.87;28.57;;;;;;;1.76;58.92;94742.42;1813534;78;21072;-50
2021/01/11 02:08:01;;;;;;;49.38;29.63;;;;;;;1.68;58.92;94744.18;1813696;78;21482;-51
2021/01/11 02:11:04;;;;;;;46.92;27.20;;;;;;;1.66;59.07;94755.40;1813598;79;21433;-51
2021/01/11 02:13:52;;;;;;;38.60;23.67;;;;;;;1.70;58.98;94758.88;1813606;79;21652;-52
2021/01/11 02:16:50;;;;;;;35.70;23.38;;;;;;;1.73;58.81;94750.73;1813565;78;21109;-51
2021/01/11 02:19:36;;;;;;;32.15;21.07;;;;;;;1.75;58.80;94757.90;1813587;79;21132;-51
2021/01/11 02:22:29;;;;;;;39.10;25.57;;;;;;;1.78;58.74;94753.05;1813576;79;21688;-52
2021/01/11 02:25:34;;;;;;;41.02;25.15;;;;;;;1.71;58.75;94744.15;1813681;79;22227;-51
2021/01/11 02:28:04;;;;;;;46.42;28.10;;;;;;;1.74;58.86;94737.97;1813471;78;21908;-51
2021/01/11 02:30:37;;;;;;;34.53;22.58;;;;;;;1.74;58.93;94731.19;1787086;79;21069;-50
2021/01/11 02:33:07;;;;;;;55.00;30.25;;;;;;;1.68;58.97;94736.05;1813724;78;21061;-51
2021/01/11 02:35:53;;;;;;;61.08;32.40;;;;;;;1.62;59.15;94726.74;1813294;78;21065;-50
2021/01/11 02:38:22;;;;;;;51.53;28.27;;;;;;;1.59;59.33;94719.39;1800641;77;21532;-50
2021/01/11 02:40:50;;;;;;;48.02;27.80;;;;;;;1.60;59.24;94719.59;1799851;79;21096;-51
2021/01/11 02:43:19;;;;;;;47.25;28.92;;;;;;;1.54;59.39;94715.73;1800005;78;21561;-51
2021/01/11 02:45:48;;;;;;;47.67;28.95;;;;;;;1.55;59.46;94714.00;1799902;79;21124;-53
2021/01/11 02:48:34;;;;;;;46.10;28.25;;;;;;;1.56;59.52;94709.34;1799964;79;21064;-52
2021/01/11 02:51:11;;;;;;;48.83;26.73;;;;;;;1.60;59.48;94704.11;1799887;78;21374;-52
2021/01/11 02:54:16;;;;;;;40.38;24.70;;;;;;;1.60;59.36;94706.81;1799891;79;21128;-52
2021/01/11 02:56:55;;;;;;;37.73;22.35;;;;;;;1.65;59.32;94706.41;1799883;79;21521;-50
2021/01/11 02:59:49;;;;;;;29.60;18.55;;;;;;;1.73;59.05;94695.72;1785637;78;21148;-53
2021/01/11 03:02:18;;;;;;;35.83;20.90;;;;;;;1.73;59.01;94698.44;1799955;78;21123;-51
2021/01/11 03:04:47;;;;;;;33.60;20.48;;;;;;;1.66;59.07;94701.17;1800026;79;22100;-51
2021/01/11 03:07:15;;;;;;;33.18;22.30;;;;;;;1.72;59.10;94696.13;1799832;79;21065;-52
2021/01/11 03:09:45;;;;;;;38.00;21.55;;;;;;;1.79;59.00;94703.06;1799951;78;21057;-50
2021/01/11 03:12:13;;;;;;;34.67;18.48;;;;;;;1.86;58.81;94698.21;1799897;79;21072;-52
2021/01/11 03:14:42;;;;;;;27.77;18.17;;;;;;;1.92;58.57;94704.80;1799926;79;21033;-50
2021/01/11 03:17:10;;;;;;;31.62;19.55;;;;;;;1.82;58.48;94706.95;1799820;78;21198;-51
2021/01/11 03:19:39;;;;;;;30.35;19.52;;;;;;;1.71;58.60;94706.19;1799838;78;21112;-50
2021/01/11 03:22:07;;;;;;;28.45;19.05;;;;;;;1.60;58.84;94709.53;1799957;78;21156;-51
2021/01/11 03:24:36;;;;;;;30.30;19.37;;;;;;;1.54;59.12;94707.00;1799882;78;21053;-51
2021/01/11 03:27:05;;;;;;;28.65;20.68;;;;;;;1.57;59.25;94710.88;1799917;79;21045;-51
2021/01/11 03:29:33;;;;;;;48.70;24.80;;;;;;;1.59;59.28;94707.98;1799876;78;21346;-52
2021/01/11 03:32:03;;;;;;;60.83;29.55;;;;;;;1.63;59.29;94710.66;1799814;78;21053;-51
2021/01/11 03:34:32;;;;;;;39.13;21.48;;;;;;;1.74;59.28;94706.79;1799874;78;21073;-51
2021/01/11 03:37:01;;;;;;;30.70;18.98;;;;;;;1.88;58.86;94701.30;1799854;78;21133;-51
2021/01/11 03:39:29;;;;;;;31.25;19.23;;;;;;;1.83;58.67;94697.64;1804764;78;21093;-51
2021/01/11 03:42:00;;;;;;;34.33;20.77;;;;;;;1.73;58.85;94695.16;1807803;79;21201;-51
2021/01/11 03:44:28;;;;;;;33.33;21.15;;;;;;;1.73;59.07;94688.95;1807739;79;21160;-51
2021/01/11 03:46:57;;;;;;;41.83;24.55;;;;;;;1.77;59.14;94690.48;1807776;78;21148;-51
2021/01/11 03:49:26;;;;;;;30.12;18.52;;;;;;;1.93;58.98;94696.84;1807868;78;21145;-52
2021/01/11 03:52:00;;;;;;;42.55;22.45;;;;;;;1.98;58.64;94697.78;1807833;79;21062;-51
2021/01/11 03:54:29;;;;;;;45.10;22.48;;;;;;;1.97;58.56;94697.60;1807904;79;22087;-51
2021/01/11 03:56:57;;;;;;;40.78;21.60;;;;;;;1.90;58.72;94690.26;1807669;78;21152;-51
2021/01/11 03:59:26;;;;;;;35.98;21.65;;;;;;;1.85;58.80;94691.23;1807777;78;21046;-51
2021/01/11 04:01:54;;;;;;;31.95;19.95;;;;;;;1.76;58.79;94695.72;1807861;79;21562;-53
2021/01/11 04:04:23;;;;;;;31.87;20.70;;;;;;;1.78;58.99;94689.92;1807785;79;20998;-52
2021/01/11 04:06:55;;;;;;;34.00;22.95;;;;;;;1.83;58.76;94688.16;1807810;78;21250;-51
2021/01/11 04:09:25;;;;;;;37.13;24.32;;;;;;;1.79;58.73;94688.75;1807769;79;21089;-53
2021/01/11 04:11:53;;;;;;;39.05;26.15;;;;;;;1.73;58.88;94688.19;1807773;79;21010;-53
2021/01/11 04:14:22;;;;;;;44.13;28.15;;;;;;;1.72;58.96;94683.94;1807746;78;21232;-50
2021/01/11 04:16:53;;;;;;;44.18;28.02;;;;;;;1.70;59.13;94681.59;1807712;78;21128;-52
2021/01/11 04:19:22;;;;;;;36.63;22.45;;;;;;;1.74;59.13;94677.72;1807784;79;21370;-52
2021/01/11 04:21:50;;;;;;;37.65;23.38;;;;;;;1.79;59.09;94671.13;1807793;79;21585;-53
2021/01/11 04:24:19;;;;;;;41.98;24.37;;;;;;;1.79;59.14;94680.02;1807765;78;21098;-52
2021/01/11 04:26:48;;;;;;;36.85;23.35;;;;;;;1.81;59.15;94677.69;1807731;78;21164;-52
2021/01/11 04:29:16;;;;;;;46.10;26.85;;;;;;;1.86;58.96;94678.66;1807779;78;21069;-51
2021/01/11 04:31:48;;;;;;;41.98;26.30;;;;;;;1.94;58.94;94678.80;1807749;79;21335;-52
2021/01/11 04:34:16;;;;;;;44.60;26.68;;;;;;;2.04;58.66;94675.86;1807745;79;21066;-52
2021/01/11 04:36:44;;;;;;;55.28;31.35;;;;;;;2.04;58.53;94673.14;1807723;79;21065;-51
2021/01/11 04:39:13;;;;;;;63.40;34.15;;;;;;;2.04;58.48;94673.14;1804684;78;21037;-51
2021/01/11 04:41:41;;;;;;;67.22;38.67;;;;;;;1.99;58.52;94674.31;1799884;78;21040;-51
2021/01/11 04:44:11;;;;;;;54.30;32.78;;;;;;;2.00;58.45;94677.81;1799848;79;21364;-51
2021/01/11 04:46:39;;;;;;;33.83;22.15;;;;;;;2.04;58.49;94692.92;1799756;78;21132;-51
2021/01/11 04:49:08;;;;;;;39.73;23.73;;;;;;;1.95;58.20;94695.87;1799826;79;21112;-50
2021/01/11 04:51:40;;;;;;;37.65;21.87;;;;;;;1.74;58.65;94693.23;1799819;78;21056;-51
2021/01/11 04:54:08;;;;;;;50.60;25.70;;;;;;;1.58;59.02;94688.82;1800227;78;21480;-52
2021/01/11 04:56:40;;;;;;;38.28;22.73;;;;;;;1.42;59.49;94683.05;1799785;79;21262;-51
2021/01/11 04:59:08;;;;;;;37.35;23.40;;;;;;;1.44;59.77;94675.30;1799883;79;21147;-52
2021/01/11 05:01:38;;;;;;;48.85;27.42;;;;;;;1.45;59.86;94672.77;1799817;78;21572;-51
2021/01/11 05:04:06;;;;;;;54.50;29.05;;;;;;;1.53;59.92;94669.47;1724947;79;21053;-51
2021/01/11 05:06:35;;;;;;;46.28;26.40;;;;;;;1.63;59.81;94669.43;1799909;78;21564;-52
2021/01/11 05:09:08;;;;;;;43.30;27.07;;;;;;;1.73;59.58;94667.25;1799845;78;21206;-52
2021/01/11 05:11:36;;;;;;;48.23;28.90;;;;;;;1.72;59.42;94662.23;1799794;79;21072;-51
2021/01/11 05:14:05;;;;;;;43.95;27.75;;;;;;;1.64;59.38;94657.98;1799795;79;21084;-52
2021/01/11 05:16:35;;;;;;;38.58;25.32;;;;;;;1.62;59.53;94658.97;1799839;79;21044;-52
2021/01/11 05:19:24;;;;;;;39.50;26.25;;;;;;;1.67;59.61;94653.16;1800020;78;21072;-52
2021/01/11 05:21:53;;;;;;;40.38;24.37;;;;;;;1.79;59.50;94658.92;1799970;78;21146;-51
2021/01/11 05:24:32;;;;;;;41.58;23.50;;;;;;;1.90;59.15;94666.41;1799947;79;21556;-51
2021/01/11 05:27:06;;;;;;;41.95;25.12;;;;;;;1.87;59.07;94672.63;1799944;78;21132;-51
2021/01/11 05:29:35;;;;;;;39.40;24.18;;;;;;;1.85;59.01;94670.90;1799985;79;21081;-52
2021/01/11 05:32:06;;;;;;;38.55;26.20;;;;;;;1.84;59.26;94668.78;1799972;79;21053;-52
2021/01/11 05:34:51;;;;;;;47.78;29.32;;;;;;;1.85;59.29;94665.48;1800299;79;22055;-52
2021/01/11 05:37:39;;;;;;;46.40;28.87;;;;;;;1.87;59.20;94659.08;1799957;79;21093;-52
2021/01/11 05:40:12;;;;;;;66.07;37.67;;;;;;;1.89;59.25;94660.80;1799845;79;21147;-54
2021/01/11 05:42:41;;;;;;;54.85;34.10;;;;;;;1.94;59.23;94661.78;1800084;79;21906;-51
2021/01/11 05:45:15;;;;;;;51.63;30.30;;;;;;;1.96;59.12;94667.58;1800103;79;21556;-51
2021/01/11 05:48:04;;;;;;;53.02;30.50;;;;;;;1.96;59.13;94670.28;1799970;78;21373;-52
2021/01/11 05:50:46;;;;;;;62.93;35.00;;;;;;;1.96;59.20;94670.28;1799908;79;21057;-51
2021/01/11 05:53:24;;;;;;;55.20;30.05;;;;;;;1.90;59.24;94665.06;1800072;79;21073;-52
2021/01/11 05:55:54;;;;;;;66.65;37.23;;;;;;;1.86;59.26;94661.59;1799961;79;21057;-52
2021/01/11 05:58:25;;;;;;;78.07;40.10;;;;;;;1.77;59.35;94673.46;1799892;78;21057;-51
2021/01/11 06:00:54;;;;;;;72.22;40.10;;;;;;;1.65;59.45;94669.81;1800080;78;22118;-51
2021/01/11 06:03:23;;;;;;;59.63;32.85;;;;;;;1.53;59.79;94674.28;1799911;79;21084;-50
2021/01/11 06:05:52;;;;;;;53.23;32.00;;;;;;;1.45;60.07;94676.84;1799918;79;21042;-51
2021/01/11 06:08:20;;;;;;;51.70;28.98;;;;;;;1.53;60.20;94675.64;1724831;79;21161;-52
2021/01/11 06:10:50;;;;;;;45.58;28.17;;;;;;;1.65;60.12;94677.19;1799898;79;21132;-51
2021/01/11 06:13:18;;;;;;;38.63;25.57;;;;;;;1.76;59.88;94678.70;1800011;78;22117;-52
2021/01/11 06:15:47;;;;;;;44.35;27.10;;;;;;;1.80;59.67;94686.23;1799871;79;21188;-52
2021/01/11 06:18:17;;;;;;;47.00;28.17;;;;;;;1.78;59.60;94680.43;1798213;78;21549;-53
2021/01/11 06:20:48;;;;;;;51.70;28.70;;;;;;;1.82;59.62;94686.61;1799923;79;21180;-52
2021/01/11 06:23:30;;;;;;;57.80;35.05;;;;;;;1.93;59.56;94691.42;1799916;78;21081;-51
2021/01/11 06:25:57;;;;;;;63.10;36.15;;;;;;;2.08;59.34;94694.24;1799966;78;21365;-52
2021/01/11 06:28:33;;;;;;;71.15;39.78;;;;;;;2.14;59.30;94696.75;1799836;78;21081;-52
2021/01/11 06:31:13;;;;;;;86.15;46.20;;;;;;;2.26;59.11;94707.15;1800008;78;21068;-52
2021/01/11 06:33:43;;;;;;;73.00;41.13;;;;;;;2.36;58.70;94711.77;1799988;78;21492;-52
2021/01/11 06:36:26;;;;;;;81.15;41.73;;;;;;;2.42;58.44;94719.67;1799999;78;21571;-52
2021/01/11 06:38:55;;;;;;;69.10;37.67;;;;;;;2.43;58.20;94722.58;1799904;79;21345;-50
2021/01/11 06:41:29;;;;;;;87.78;43.98;;;;;;;2.37;57.99;94722.23;1799771;78;21077;-51
2021/01/11 06:44:08;;;;;;;94.50;51.28;;;;;;;2.24;58.18;94727.13;1799913;79;21116;-51
2021/01/11 06:46:43;;;;;;;85.83;46.92;;;;;;;2.16;58.33;94735.12;1799969;78;21112;-54
2021/01/11 06:49:26;;;;;;;90.45;48.30;;;;;;;2.05;58.49;94727.59;1799796;79;21056;-53
2021/01/11 06:52:07;;;;;;;73.50;38.20;;;;;;;1.94;58.82;94737.72;1800180;79;21363;-59
2021/01/11 06:54:41;;;;;;;66.37;37.35;;;;;;;1.89;59.04;94739.45;1797939;79;21192;-59
2021/01/11 06:57:13;;;;;;;65.72;38.48;;;;;;;1.81;59.19;94738.70;1798023;78;21140;-55
2021/01/11 06:59:41;;;;;;;64.82;35.58;;;;;;;1.80;59.31;94736.40;1798136;78;21203;-52
2021/01/11 07:02:28;;;;;;;76.72;45.08;;;;;;;1.81;59.40;94739.30;1798693;79;21145;-53
2021/01/11 07:05:00;;;;;;;73.37;42.58;;;;;;;1.85;59.40;94731.35;1798889;79;21364;-54
2021/01/11 07:07:28;;;;;;;53.75;33.63;;;;;;;1.89;59.20;94740.81;1799250;78;21143;-54
2021/01/11 07:09:58;;;;;;;70.75;39.83;;;;;;;1.95;59.02;94739.27;1799668;78;21211;-52
2021/01/11 07:12:27;;;;;;;104.55;53.75;;;;;;;1.92;59.00;94731.92;1799006;78;21195;-53
2021/01/11 07:15:02;;;;;;;78.05;40.33;;;;;;;1.91;58.91;94743.34;1796175;79;21148;-52
2021/01/11 07:17:37;;;;;;;74.77;41.45;;;;;;;1.95;58.93;94744.09;1797472;78;22294;-57
2021/01/11 07:20:08;;;;;;;353.80;100.00;;;;;;;1.98;58.83;94743.30;1798759;79;21097;-54
2021/01/11 07:22:41;;;;;;;142.80;60.92;;;;;;;2.02;58.63;94744.66;1798770;78;21140;-55
2021/01/11 07:25:17;;;;;;;57.25;34.80;;;;;;;1.98;58.56;94742.55;1793465;78;21588;-55
2021/01/11 07:27:46;;;;;;;72.10;40.67;;;;;;;2.00;58.58;94746.99;1799624;79;21069;-52
2021/01/11 07:30:18;;;;;;;93.03;53.13;;;;;;;2.12;58.54;94750.64;1780750;79;21198;-54
2021/01/11 07:32:47;;;;;;;66.67;41.73;;;;;;;2.14;58.43;94751.02;1779666;79;21065;-57
2021/01/11 07:35:15;;;;;;;42.33;28.40;;;;;;;2.20;58.27;94762.44;1799286;79;21068;-56
2021/01/11 07:37:44;;;;;;;54.90;30.55;;;;;;;2.27;57.69;94756.97;1798950;79;21172;-55
2021/01/11 07:40:14;;;;;;;38.90;25.20;;;;;;;2.33;57.42;94757.34;1796930;79;21600;-56
2021/01/11 07:42:42;;;;;;;37.73;22.32;;;;;;;2.29;57.29;94756.59;1804476;79;21360;-52
2021/01/11 07:45:12;;;;;;;50.50;31.42;;;;;;;2.18;57.31;94752.53;1798213;78;21145;-53
2021/01/11 07:47:44;;;;;;;34.08;23.50;;;;;;;2.15;57.37;94751.97;1806717;78;21090;-54
2021/01/11 07:50:12;;;;;;;42.53;26.62;;;;;;;2.21;57.09;94757.20;1782219;79;21160;-54
2021/01/11 07:52:42;;;;;;;43.23;28.77;;;;;;;2.22;57.30;94752.53;1803882;78;21129;-56
2021/01/11 07:55:12;;;;;;;38.17;25.43;;;;;;;2.24;57.45;94758.33;1803380;78;21206;-51
2021/01/11 07:59:48;;;;;;;39.95;25.70;;;;;;;2.20;57.49;94754.86;1813472;77;26787;-52
2021/01/11 08:02:17;;;;;;;48.05;29.37;;;;;;;2.12;57.40;94756.06;1738263;79;21227;-53
2021/01/11 08:04:46;;;;;;;58.63;33.88;;;;;;;2.09;57.68;94756.27;1757479;79;22182;-54
2021/01/11 08:07:14;;;;;;;65.20;39.63;;;;;;;2.09;57.72;94755.47;1773400;80;21214;-55
2021/01/11 08:09:44;;;;;;;102.60;55.50;;;;;;;2.15;57.78;94756.64;1773477;79;21160;-50
2021/01/11 08:12:16;;;;;;;66.42;35.95;;;;;;;2.15;57.72;94756.64;1723583;82;21507;-53
2021/01/11 08:14:45;;;;;;;63.52;35.10;;;;;;;2.21;57.60;94753.12;1781029;78;21162;-54
2021/01/11 08:17:18;;;;;;;48.85;27.85;;;;;;;2.24;57.53;94755.05;1761699;79;21260;-49
2021/01/11 08:19:56;;;;;;;54.33;31.87;;;;;;;2.32;57.31;94759.87;1768932;79;21258;-52
2021/01/11 08:22:27;;;;;;;34.67;22.10;;;;;;;2.34;57.37;94764.31;1772711;79;21179;-55
2021/01/11 08:24:57;;;;;;;43.78;26.07;;;;;;;2.34;57.41;94765.67;1768351;79;21173;-53
2021/01/11 08:27:44;;;;;;;35.17;22.37;;;;;;;2.28;57.28;94762.59;1744959;79;21148;-53
2021/01/11 08:30:23;;;;;;;42.85;25.90;;;;;;;2.28;57.24;94766.66;1763278;80;21817;-53
2021/01/11 08:32:51;;;;;;;35.58;23.40;;;;;;;2.34;57.29;94769.74;1777078;80;21064;-52
2021/01/11 08:35:21;;;;;;;38.02;24.98;;;;;;;2.45;57.03;94765.02;1777506;80;21682;-54
2021/01/11 08:37:53;;;;;;;47.95;28.80;;;;;;;2.47;56.90;94768.14;1765220;79;21124;-53
2021/01/11 08:40:29;;;;;;;35.10;23.45;;;;;;;2.43;57.00;94776.30;1720566;80;21278;-55
2021/01/11 08:43:19;;;;;;;37.13;24.40;;;;;;;2.33;56.87;94779.05;1765739;79;21375;-52
2021/01/11 08:45:45;;;;;;;41.25;23.65;;;;;;;2.24;57.22;94777.33;1759744;80;21625;-50
2021/01/11 08:48:14;;;;;;;35.03;23.18;;;;;;;2.24;57.50;94782.19;1748669;81;21214;-52
2021/01/11 08:50:56;;;;;;;42.20;27.40;;;;;;;2.22;57.50;94782.38;1751467;80;21150;-55
2021/01/11 08:53:29;;;;;;;45.55;27.37;;;;;;;2.24;57.52;94780.83;1766492;79;21325;-54
2021/01/11 08:56:10;;;;;;;;;;;;;;;2.19;57.71;94785.88;1759909;79;21566;-58
2021/01/11 08:58:48;;;;;;;37.83;24.57;;;;;;;2.11;58.01;94787.84;1751887;80;20221;-57
2021/01/11 09:01:19;;;;;;;33.28;19.55;;;;;;;2.08;58.50;94778.34;1743538;80;21183;-54
2021/01/11 09:03:52;;;;;;;35.05;24.70;;;;;;;2.20;58.68;94777.93;1721758;81;21266;-56
2021/01/11 09:06:41;;;;;;;;;;;;;;;2.24;58.59;94778.12;1743509;80;21067;-51
2021/01/11 09:09:13;;;;;;;37.73;22.17;;;;;;;2.33;58.62;94772.27;1746885;79;20563;-53
2021/01/11 09:12:07;;;;;;;30.97;19.80;;;;;;;2.44;58.44;94772.41;1867449;76;20930;-53
2021/01/11 09:14:38;;;;;;;37.73;23.02;;;;;;;2.45;58.07;94771.24;1785963;80;21203;-55
2021/01/11 09:17:07;;;;;;;30.72;19.62;;;;;;;2.42;57.64;94771.25;1814622;78;21267;-56
2021/01/11 09:19:35;;;;;;;27.90;19.00;;;;;;;2.47;57.28;94772.97;1780679;78;21112;-56
2021/01/11 09:22:16;;;;;;;30.57;21.23;;;;;;;2.44;57.25;94771.05;1792942;80;21126;-56
2021/01/11 09:24:45;;;;;;;27.55;18.25;;;;;;;2.43;57.80;94771.44;1804631;79;21135;-55
2021/01/11 09:27:13;;;;;;;30.37;19.77;;;;;;;2.55;57.76;94764.22;1781070;79;21162;-55
2021/01/11 09:29:41;;;;;;;29.92;19.12;;;;;;;2.70;57.54;94764.34;1811677;79;21306;-54
2021/01/11 09:32:10;;;;;;;35.52;23.00;;;;;;;2.88;56.96;94765.01;1803690;78;21195;-55
2021/01/11 09:34:39;;;;;;;47.33;32.20;;;;;;;2.94;57.07;94764.77;1809285;77;21072;-54
2021/01/11 09:37:13;;;;;;;25.72;20.08;;;;;;;3.09;56.69;94773.02;1795853;78;21074;-56
2021/01/11 09:39:42;;;;;;;37.83;25.02;;;;;;;3.28;56.59;94769.77;1794676;78;21247;-55
2021/01/11 09:42:11;;;;;;;35.03;24.23;;;;;;;3.37;56.27;94761.92;1801862;79;22348;-55
2021/01/11 09:44:41;;;;;;;85.77;50.80;;;;;;;3.49;55.78;94764.34;1802266;78;21131;-53
2021/01/11 09:47:10;;;;;;;33.00;23.80;;;;;;;3.70;55.48;94762.80;1800084;79;21190;-51
2021/01/11 09:49:40;;;;;;;32.28;19.70;;;;;;;3.82;54.98;94762.30;1793243;78;21671;-55
2021/01/11 09:52:08;;;;;;;28.60;19.87;;;;;;;3.89;54.47;94754.06;1770872;79;21066;-58
2021/01/11 09:54:37;;;;;;;30.02;21.73;;;;;;;3.97;53.91;94756.91;1802593;79;22211;-55
2021/01/11 09:57:10;;;;;;;43.75;27.73;;;;;;;3.94;53.58;94752.28;1791255;79;21194;-54
2021/01/11 09:59:38;;;;;;;29.42;20.23;;;;;;;3.76;54.10;94757.13;1775006;78;21123;-57
2021/01/11 10:02:12;;;;;;;32.10;21.07;;;;;;;3.62;54.47;94750.45;1777233;80;21169;-50
2021/01/11 10:04:44;;;;;;;24.60;17.75;;;;;;;3.47;54.69;94747.48;1750349;80;21106;-56
2021/01/11 10:07:12;;;;;;;26.33;17.45;;;;;;;3.45;54.66;94749.83;1778469;80;22115;-51
2021/01/11 10:09:42;;;;;;;43.02;18.73;;;;;;;3.58;54.50;94748.92;1761960;80;21160;-58
2021/01/11 10:12:11;;;;;;;48.33;24.37;;;;;;;3.68;54.02;94751.55;1823119;78;21065;-54
2021/01/11 10:14:40;;;;;;;30.32;19.65;;;;;;;3.77;54.21;94754.59;1785547;79;21149;-50
2021/01/11 10:17:10;;;;;;;26.37;19.20;;;;;;;3.86;54.20;94745.35;1797922;79;21550;-52
2021/01/11 10:19:39;;;;;;;35.05;22.30;;;;;;;3.97;53.73;94739.22;1795018;79;21357;-55
2021/01/11 10:22:08;;;;;;;35.68;22.85;;;;;;;4.09;53.33;94742.77;1805620;78;21266;-53
2021/01/11 10:24:36;;;;;;;32.23;19.27;;;;;;;4.22;52.93;94737.59;1799873;78;21206;-53
2021/01/11 10:27:05;;;;;;;29.85;18.55;;;;;;;4.22;52.45;94734.27;1799661;78;21784;-51
2021/01/11 10:29:35;;;;;;;29.00;19.70;;;;;;;4.08;52.41;94740.47;1800354;78;21511;-56
2021/01/11 10:32:04;;;;;;;25.45;16.15;;;;;;;3.91;52.64;94731.91;1800381;78;21614;-55
2021/01/11 10:34:33;;;;;;;34.20;21.62;;;;;;;3.94;52.98;94730.52;1794093;78;21512;-58
2021/01/11 10:37:02;;;;;;;29.55;18.87;;;;;;;4.06;52.78;94725.89;1803415;78;21217;-57
2021/01/11 10:39:30;;;;;;;28.52;17.67;;;;;;;4.28;52.33;94716.89;1810317;78;21137;-59
2021/01/11 10:41:59;;;;;;;40.73;22.62;;;;;;;4.54;52.42;94714.23;1806636;78;21060;-58
2021/01/11 10:44:28;;;;;;;29.82;19.98;;;;;;;4.85;52.06;94717.12;1766389;79;21863;-54
2021/01/11 10:49:37;;;;;;;32.00;18.23;;;;;;;5.42;50.75;94712.34;1878943;76;22135;-54
2021/01/11 10:52:06;;;;;;;33.30;18.62;;;;;;;5.47;50.00;94714.00;1833072;77;21471;-51
2021/01/11 10:54:35;;;;;;;24.18;16.60;;;;;;;5.64;49.84;94705.33;1849593;77;22319;-56
2021/01/11 10:57:03;;;;;;;28.02;19.07;;;;;;;5.79;48.85;94709.39;1838344;77;21248;-55
2021/01/11 10:59:32;;;;;;;27.17;17.92;;;;;;;5.87;48.69;94710.20;1801749;77;21619;-52
2021/01/11 11:02:01;;;;;;;29.12;17.87;;;;;;;6.07;48.31;94708.84;1820342;78;21178;-58
2021/01/11 11:04:30;;;;;;;31.20;17.98;;;;;;;6.24;48.17;94711.84;1816280;77;21287;-51
2021/01/11 11:06:59;;;;;;;86.15;44.67;;;;;;;6.55;47.78;94703.61;1791127;78;21223;-54
2021/01/11 11:09:28;;;;;;;44.60;28.92;;;;;;;6.73;47.04;94690.33;1818977;78;21385;-54
2021/01/11 11:11:57;;;;;;;33.73;22.40;;;;;;;6.84;46.33;94688.91;1826351;78;21166;-53
2021/01/11 11:14:25;;;;;;;30.08;20.68;;;;;;;6.85;45.85;94695.16;1826199;78;21146;-51
2021/01/11 11:16:54;;;;;;;29.75;16.70;;;;;;;6.70;46.39;94688.45;1825910;78;21362;-55
2021/01/11 11:19:23;;;;;;;29.48;21.27;;;;;;;6.46;46.06;94678.80;1813998;78;22225;-54
2021/01/11 11:21:52;;;;;;;22.82;16.12;;;;;;;6.02;46.29;94684.19;1817633;78;21152;-53
2021/01/11 11:24:22;;;;;;;23.20;16.23;;;;;;;5.69;46.78;94684.38;1807076;79;21517;-52
2021/01/11 11:26:50;;;;;;;25.05;16.32;;;;;;;5.38;47.56;94693.90;1819720;78;21160;-52
2021/01/11 11:29:19;;;;;;;23.73;14.65;;;;;;;5.01;48.20;94688.63;1825898;78;21158;-51
2021/01/11 11:31:50;;;;;;;23.42;15.78;;;;;;;4.65;49.27;94684.11;1826144;78;22083;-52
2021/01/11 11:34:19;;;;;;;26.42;16.27;;;;;;;4.32;49.79;94677.56;1825398;78;21633;-53
2021/01/11 11:36:54;;;;;;;22.60;15.38;;;;;;;4.04;50.61;94679.86;1817899;78;21198;-51
2021/01/11 11:39:23;;;;;;;25.82;16.80;;;;;;;3.82;50.94;94669.02;1810188;78;21206;-55
2021/01/11 11:42:02;;;;;;;27.73;18.55;;;;;;;3.70;51.56;94666.84;1826634;78;21126;-56
2021/01/11 11:44:31;;;;;;;32.93;20.97;;;;;;;3.65;52.13;94655.05;1818207;78;22287;-54
2021/01/11 11:47:05;;;;;;;45.78;30.37;;;;;;;3.64;52.14;94660.27;1758194;78;21118;-56
2021/01/11 11:49:34;;;;;;;48.52;29.18;;;;;;;3.54;52.18;94656.48;1824444;78;21614;-55
2021/01/11 11:52:04;;;;;;;34.45;19.87;;;;;;;3.38;52.40;94652.03;1800303;78;21121;-51